Time;durP1;ratioP1;P1;durP2;ratioP2;P2;SDS_P1;SDS_P2;PMS_P1;PMS_P2;Temp;Humidity;BMP_temperature;BMP_pressure;BME280_temperature;BME280_humidity;BME280_pressure;Samples;Min_cycle;Max_cycle;Signal;HPM_P1;HPM_P2
2022/01/15 00:01:36;;;;;;;101.68;27.02;;;-0.30;99.90;;;;;;5050304;28;20199;-76
2022/01/15 00:04:04;;;;;;;135.77;31.52;;;-0.30;99.90;;;;;;5035662;28;20207;-75
2022/01/15 00:06:31;;;;;;;111.82;27.48;;;-0.50;99.90;;;;;;5037757;28;20254;-75
2022/01/15 00:08:58;;;;;;;112.15;28.42;;;-0.70;99.90;;;;;;5058185;28;20620;-75
2022/01/15 00:11:26;;;;;;;113.50;27.25;;;-0.80;99.90;;;;;;5056539;28;20222;-76
2022/01/15 00:13:56;;;;;;;99.18;27.23;;;-0.70;99.90;;;;;;5037060;28;20291;-75
2022/01/15 00:16:32;;;;;;;110.93;29.10;;;-0.70;99.90;;;;;;5036243;28;20651;-75
2022/01/15 00:19:08;;;;;;;97.18;26.08;;;-0.60;99.90;;;;;;5057383;28;20226;-76
2022/01/15 00:21:35;;;;;;;112.20;25.75;;;-0.50;99.90;;;;;;5055764;28;20708;-74
2022/01/15 00:24:02;;;;;;;147.68;31.00;;;-0.70;99.90;;;;;;5057093;28;20229;-75
2022/01/15 00:26:31;;;;;;;104.68;27.52;;;-0.80;99.90;;;;;;5055406;28;20213;-75
2022/01/15 00:28:58;;;;;;;130.23;29.08;;;-0.90;99.90;;;;;;5055483;28;20776;-75
2022/01/15 00:31:25;;;;;;;100.28;25.42;;;-0.90;99.90;;;;;;5036756;28;20230;-74
2022/01/15 00:33:52;;;;;;;81.78;21.25;;;-0.90;99.90;;;;;;5034723;28;20290;-75
2022/01/15 00:36:19;;;;;;;83.90;23.45;;;-0.90;99.90;;;;;;5051242;28;20202;-75
2022/01/15 00:38:47;;;;;;;90.68;27.15;;;-1.00;99.90;;;;;;5054005;28;20233;-76
2022/01/15 00:41:16;;;;;;;114.32;29.73;;;-1.00;99.90;;;;;;5053609;28;20210;-75
2022/01/15 00:43:44;;;;;;;92.88;24.00;;;-1.10;99.90;;;;;;5053609;28;20699;-74
2022/01/15 00:46:11;;;;;;;74.50;25.25;;;-1.10;99.90;;;;;;5054827;28;20210;-75
2022/01/15 00:48:38;;;;;;;60.67;22.90;;;-1.10;99.90;;;;;;5043432;28;20237;-75
2022/01/15 00:51:05;;;;;;;82.95;27.88;;;-1.10;99.90;;;;;;5035797;28;20675;-75
2022/01/15 00:53:32;;;;;;;106.93;28.83;;;-1.00;99.90;;;;;;5036092;28;20214;-76
2022/01/15 00:55:59;;;;;;;131.38;28.38;;;-1.10;99.90;;;;;;5035431;28;20496;-75
2022/01/15 00:58:25;;;;;;;115.60;30.35;;;-1.10;99.90;;;;;;5036047;28;20591;-75
2022/01/15 01:00:54;;;;;;;78.07;26.63;;;-1.10;99.90;;;;;;5035981;28;20207;-74
2022/01/15 01:03:21;;;;;;;105.55;28.23;;;-1.10;99.90;;;;;;5042169;28;20213;-74
2022/01/15 01:05:47;;;;;;;82.70;29.38;;;-1.10;99.90;;;;;;5055273;28;20206;-77
2022/01/15 01:08:14;;;;;;;98.82;29.75;;;-1.20;99.90;;;;;;5049090;28;20266;-75
2022/01/15 01:10:55;;;;;;;115.28;25.83;;;-1.20;99.90;;;;;;5034888;28;20297;-75
2022/01/15 01:22:45;;;;;;;96.72;29.80;;;-1.30;99.90;;;;;;5063974;28;20202;-76
2022/01/15 01:24:54;;;;;;;95.15;30.48;;;-1.20;99.90;;;;;;5051033;28;20555;-74
2022/01/15 01:27:26;;;;;;;98.60;30.65;;;-1.20;99.90;;;;;;5033871;28;20322;-75
2022/01/15 01:30:08;;;;;;;105.38;31.80;;;-1.10;99.90;;;;;;5051107;28;20223;-75
2022/01/15 01:32:45;;;;;;;94.95;30.85;;;-1.10;99.90;;;;;;5053322;28;20218;-75
2022/01/15 01:35:16;;;;;;;94.45;30.48;;;-1.10;99.90;;;;;;5053501;28;20631;-76
2022/01/15 01:37:47;;;;;;;99.18;32.00;;;-1.10;99.90;;;;;;5053526;28;20203;-75
2022/01/15 01:40:20;;;;;;;86.28;29.88;;;-1.20;99.90;;;;;;5035174;28;20207;-77
2022/01/15 01:43:04;;;;;;;81.35;29.02;;;-1.10;99.90;;;;;;5034275;28;20234;-74
2022/01/15 01:45:31;;;;;;;80.78;28.63;;;-1.10;99.90;;;;;;5039507;28;20211;-75
2022/01/15 01:47:59;;;;;;;106.50;29.88;;;-1.10;99.90;;;;;;5033182;28;20274;-75
2022/01/15 01:50:28;;;;;;;87.68;29.70;;;-1.10;99.90;;;;;;5052087;28;20206;-75
2022/01/15 01:52:57;;;;;;;114.95;28.58;;;-1.10;99.90;;;;;;5052577;28;20214;-75
2022/01/15 01:55:26;;;;;;;79.53;27.27;;;-1.20;99.90;;;;;;5053811;28;20210;-75
2022/01/15 01:57:56;;;;;;;78.78;26.67;;;-1.20;99.90;;;;;;5054182;28;20222;-76
2022/01/15 02:00:25;;;;;;;84.78;28.30;;;-1.20;99.90;;;;;;5058312;28;20222;-76
2022/01/15 02:02:54;;;;;;;80.97;20.45;;;-1.20;99.90;;;;;;5060788;28;20203;-75
2022/01/15 02:05:22;;;;;;;78.00;28.05;;;-1.20;99.90;;;;;;5043386;28;20229;-75
2022/01/15 02:07:49;;;;;;;76.40;28.23;;;-1.20;99.90;;;;;;5043699;28;20692;-74
2022/01/15 02:10:18;;;;;;;52.50;19.27;;;-1.20;99.90;;;;;;5060639;28;20206;-77
2022/01/15 02:12:47;;;;;;;71.60;24.38;;;-1.10;99.90;;;;;;5060362;28;20222;-76
2022/01/15 02:15:16;;;;;;;75.03;26.73;;;-1.10;99.90;;;;;;5036105;28;20238;-75
2022/01/15 02:17:45;;;;;;;79.07;29.48;;;-1.20;99.90;;;;;;5032783;28;20644;-75
2022/01/15 02:20:58;;;;;;;90.95;27.08;;;-1.10;99.90;;;;;;5045011;28;20621;-75
2022/01/15 02:23:34;;;;;;;68.25;23.17;;;-1.10;99.90;;;;;;5033766;28;20206;-75
2022/01/15 02:26:03;;;;;;;79.78;24.88;;;-1.10;99.90;;;;;;5033877;28;20631;-75
2022/01/15 02:28:31;;;;;;;88.18;25.77;;;-1.10;99.90;;;;;;5037409;28;20231;-76
2022/01/15 02:31:01;;;;;;;98.75;28.52;;;-1.00;99.90;;;;;;5053768;28;20210;-75
2022/01/15 02:33:29;;;;;;;65.20;26.40;;;-1.00;99.90;;;;;;5053824;28;20234;-75
2022/01/15 02:35:59;;;;;;;92.68;26.67;;;-1.00;99.90;;;;;;5054900;28;20674;-76
2022/01/15 02:38:26;;;;;;;100.53;30.05;;;-1.00;99.90;;;;;;5052170;28;20225;-76
2022/01/15 02:40:53;;;;;;;96.00;27.77;;;-1.00;99.90;;;;;;5033486;28;20214;-75
2022/01/15 02:43:27;;;;;;;87.88;27.60;;;-1.10;99.90;;;;;;5040496;28;20207;-76
2022/01/15 02:45:55;;;;;;;87.28;27.60;;;-1.10;99.90;;;;;;5034336;28;20276;-75
2022/01/15 02:48:24;;;;;;;77.22;25.80;;;-1.00;99.90;;;;;;5034480;28;20711;-76
2022/01/15 02:50:52;;;;;;;72.10;26.15;;;-1.00;99.90;;;;;;5034389;28;20306;-75
2022/01/15 02:53:20;;;;;;;78.55;27.38;;;-1.00;99.90;;;;;;5042989;28;20210;-76
2022/01/15 02:55:51;;;;;;;78.40;27.98;;;-1.00;99.90;;;;;;5053737;28;20397;-77
2022/01/15 02:58:20;;;;;;;94.60;29.88;;;-1.00;99.90;;;;;;5053103;28;20245;-77
2022/01/15 03:00:48;;;;;;;85.50;29.20;;;-1.00;99.90;;;;;;5053830;28;20221;-76
2022/01/15 03:03:15;;;;;;;91.25;30.55;;;-1.10;99.90;;;;;;5044997;28;20553;-75
2022/01/15 03:05:42;;;;;;;74.13;27.75;;;-1.10;99.90;;;;;;5034530;28;20211;-76
2022/01/15 03:08:09;;;;;;;99.45;31.73;;;-1.10;99.90;;;;;;5040436;28;20228;-77
2022/01/15 03:10:37;;;;;;;73.78;31.45;;;-1.10;99.90;;;;;;5057153;28;20301;-77
2022/01/15 03:13:10;;;;;;;88.20;30.73;;;-1.00;99.90;;;;;;5051118;28;20260;-77
2022/01/15 03:15:37;;;;;;;100.28;33.45;;;-1.10;99.90;;;;;;5039369;28;20215;-77
2022/01/15 03:18:04;;;;;;;105.85;34.35;;;-1.10;99.90;;;;;;5039876;28;20282;-78
2022/01/15 03:20:31;;;;;;;84.47;29.77;;;-1.20;99.90;;;;;;5038825;28;20222;-76
2022/01/15 03:22:59;;;;;;;76.70;31.13;;;-1.20;99.90;;;;;;5038826;28;20267;-76
2022/01/15 03:25:26;;;;;;;75.30;30.52;;;-1.20;99.90;;;;;;5057346;28;20206;-77
2022/01/15 03:27:55;;;;;;;78.60;30.70;;;-1.10;99.90;;;;;;5057067;28;20322;-77
2022/01/15 03:30:22;;;;;;;81.15;32.22;;;-1.10;99.90;;;;;;5049255;28;20265;-76
2022/01/15 03:32:49;;;;;;;81.18;31.55;;;-1.10;99.90;;;;;;5041331;28;20611;-77
2022/01/15 03:35:17;;;;;;;91.93;33.20;;;-1.20;99.90;;;;;;5048732;28;20197;-75
2022/01/15 03:37:44;;;;;;;87.03;31.30;;;-1.20;99.90;;;;;;5058437;28;20195;-77
2022/01/15 03:40:14;;;;;;;90.50;32.78;;;-1.20;99.90;;;;;;5052981;28;20203;-76
2022/01/15 03:42:41;;;;;;;82.05;31.80;;;-1.20;99.90;;;;;;5058441;28;20209;-77
2022/01/15 03:45:11;;;;;;;96.72;34.03;;;-1.20;99.90;;;;;;5045400;28;20217;-78
2022/01/15 03:47:38;;;;;;;83.85;31.58;;;-1.20;99.90;;;;;;5041370;28;20309;-78
2022/01/15 03:50:06;;;;;;;83.82;30.55;;;-1.20;99.90;;;;;;5057955;28;20253;-77
2022/01/15 03:52:33;;;;;;;72.85;31.88;;;-1.30;99.90;;;;;;5058502;28;20278;-77
2022/01/15 03:55:00;;;;;;;91.72;33.55;;;-1.30;99.90;;;;;;5077956;28;20210;-76
2022/01/15 03:57:27;;;;;;;93.88;33.70;;;-1.20;99.90;;;;;;5076641;28;20206;-76
2022/01/15 03:59:54;;;;;;;66.70;30.27;;;-1.30;99.90;;;;;;5058304;28;20243;-77
2022/01/15 04:02:22;;;;;;;81.22;33.97;;;-1.30;99.90;;;;;;5058378;28;20274;-76
2022/01/15 04:04:49;;;;;;;78.57;31.48;;;-1.20;99.90;;;;;;5078553;28;20207;-75
2022/01/15 04:07:16;;;;;;;67.15;30.40;;;-1.30;99.90;;;;;;5078730;28;20224;-76
2022/01/15 04:09:43;;;;;;;82.10;36.13;;;-1.30;99.90;;;;;;5059625;28;20250;-76
2022/01/15 04:12:10;;;;;;;78.20;34.90;;;-1.30;99.90;;;;;;5055193;28;20217;-76
2022/01/15 04:14:37;;;;;;;75.55;32.03;;;-1.30;99.90;;;;;;5056224;28;20486;-76
2022/01/15 04:17:04;;;;;;;73.35;31.35;;;-1.20;99.90;;;;;;5054845;28;20218;-76
2022/01/15 04:19:33;;;;;;;79.70;32.35;;;-1.20;99.90;;;;;;5072374;28;20222;-77
2022/01/15 04:22:00;;;;;;;90.63;34.17;;;-1.20;99.90;;;;;;5071223;28;20245;-77
2022/01/15 04:24:27;;;;;;;76.82;32.75;;;-1.20;99.90;;;;;;5064255;28;20229;-78
2022/01/15 04:26:54;;;;;;;71.50;30.42;;;-1.20;99.90;;;;;;5064538;28;20234;-77
2022/01/15 04:29:21;;;;;;;75.80;31.98;;;-1.10;99.90;;;;;;5054325;28;20300;-78
2022/01/15 04:31:49;;;;;;;72.72;33.78;;;-1.20;99.90;;;;;;5039839;28;20576;-77
2022/01/15 04:34:17;;;;;;;72.10;33.08;;;-1.20;99.90;;;;;;5039725;28;20207;-77
2022/01/15 04:36:46;;;;;;;82.57;31.70;;;-1.10;99.90;;;;;;5039547;28;20234;-77
2022/01/15 04:39:14;;;;;;;69.95;33.30;;;-1.10;99.90;;;;;;5038792;28;20224;-78
2022/01/15 04:41:41;;;;;;;79.32;31.30;;;-1.20;99.90;;;;;;5038067;28;20245;-78
2022/01/15 04:44:09;;;;;;;79.78;31.73;;;-1.20;99.90;;;;;;5053428;28;20248;-79
2022/01/15 04:46:37;;;;;;;66.63;30.48;;;-1.20;99.90;;;;;;5057555;28;20240;-78
2022/01/15 04:49:05;;;;;;;74.30;32.90;;;-1.20;99.90;;;;;;5057107;28;20226;-77
2022/01/15 04:51:33;;;;;;;68.43;33.28;;;-1.30;99.90;;;;;;5057055;28;20278;-78
2022/01/15 04:54:02;;;;;;;66.65;33.65;;;-1.20;99.90;;;;;;5046591;28;20289;-78
2022/01/15 04:56:29;;;;;;;72.57;34.67;;;-1.20;99.90;;;;;;5038129;28;20261;-79
2022/01/15 04:58:59;;;;;;;60.35;27.08;;;-1.30;99.90;;;;;;5050182;28;20250;-77
2022/01/15 05:01:28;;;;;;;70.93;33.38;;;-1.20;99.90;;;;;;5060083;28;20700;-77
2022/01/15 05:03:55;;;;;;;49.88;25.70;;;-1.30;99.90;;;;;;5048293;28;20230;-78
2022/01/15 05:06:21;;;;;;;70.03;32.50;;;-1.20;99.90;;;;;;5037668;28;20203;-77
2022/01/15 05:08:52;;;;;;;67.88;31.48;;;-1.20;99.90;;;;;;5039768;28;20883;-77
2022/01/15 05:11:29;;;;;;;73.30;33.05;;;-1.20;99.90;;;;;;5042687;28;20261;-77
2022/01/15 05:13:56;;;;;;;63.53;31.63;;;-1.20;99.90;;;;;;5047312;28;20579;-79
2022/01/15 05:16:23;;;;;;;64.90;30.70;;;-1.20;99.90;;;;;;5039404;28;20270;-78
2022/01/15 05:18:50;;;;;;;71.80;32.88;;;-1.30;99.90;;;;;;5037541;28;20219;-77
2022/01/15 05:21:17;;;;;;;74.85;32.40;;;-1.30;99.90;;;;;;5036404;28;20214;-78
2022/01/15 05:23:44;;;;;;;73.15;32.58;;;-1.40;99.90;;;;;;5038651;28;20203;-77
2022/01/15 05:26:11;;;;;;;71.38;34.47;;;-1.30;99.90;;;;;;5041407;28;20564;-77
2022/01/15 05:28:40;;;;;;;72.00;31.92;;;-1.30;99.90;;;;;;5050477;28;20637;-76
2022/01/15 05:31:06;;;;;;;53.97;27.50;;;-1.30;99.90;;;;;;5057468;28;20293;-77
2022/01/15 05:33:34;;;;;;;55.22;29.27;;;-1.30;99.90;;;;;;5050075;28;20233;-77
2022/01/15 05:36:01;;;;;;;63.22;28.77;;;-1.30;99.90;;;;;;5039274;28;20603;-78
2022/01/15 05:38:28;;;;;;;58.33;25.33;;;-1.30;99.90;;;;;;5036500;28;20229;-78
2022/01/15 05:40:54;;;;;;;60.58;30.25;;;-1.30;99.90;;;;;;5037535;28;20845;-77
2022/01/15 05:43:21;;;;;;;71.00;30.13;;;-1.40;99.90;;;;;;5037732;28;20231;-77
2022/01/15 05:45:50;;;;;;;54.03;28.52;;;-1.40;99.90;;;;;;5040933;28;20786;-78
2022/01/15 05:48:17;;;;;;;62.72;30.55;;;-1.30;99.90;;;;;;5039925;28;20227;-77
2022/01/15 05:50:44;;;;;;;71.13;31.23;;;-1.30;99.90;;;;;;5039037;28;20199;-78
2022/01/15 05:53:11;;;;;;;67.57;28.45;;;-1.30;99.90;;;;;;5046346;28;20265;-77
2022/01/15 05:55:38;;;;;;;68.15;32.25;;;-1.30;99.90;;;;;;5053933;28;20233;-79
2022/01/15 05:58:06;;;;;;;62.78;27.83;;;-1.30;99.90;;;;;;5047136;28;20286;-78
2022/01/15 06:00:33;;;;;;;55.10;29.10;;;-1.30;99.90;;;;;;5056021;28;20255;-77
2022/01/15 06:03:02;;;;;;;58.22;28.15;;;-1.20;99.90;;;;;;5050922;28;20211;-78
2022/01/15 06:05:28;;;;;;;62.92;27.70;;;-1.20;99.90;;;;;;5042952;28;20203;-77
2022/01/15 06:07:56;;;;;;;56.03;27.05;;;-1.30;99.90;;;;;;5044477;28;20219;-79
2022/01/15 06:10:23;;;;;;;64.50;28.05;;;-1.20;99.90;;;;;;5055317;28;20222;-77
2022/01/15 06:12:50;;;;;;;50.17;26.27;;;-1.20;99.90;;;;;;5070467;28;20178;-76
2022/01/15 06:15:17;;;;;;;58.72;27.15;;;-1.20;99.90;;;;;;5076238;28;20201;-76
2022/01/15 06:17:45;;;;;;;62.70;28.30;;;-1.20;99.90;;;;;;5075347;28;20222;-77
2022/01/15 06:20:15;;;;;;;62.13;26.83;;;-1.20;99.90;;;;;;5072248;28;20194;-78
2022/01/15 06:22:42;;;;;;;50.00;26.65;;;-1.10;99.90;;;;;;5051007;28;20230;-77
2022/01/15 06:25:10;;;;;;;57.90;26.23;;;-1.10;99.90;;;;;;5054134;28;20203;-77
2022/01/15 06:27:37;;;;;;;63.35;28.15;;;-1.10;99.90;;;;;;5061691;28;20297;-78
2022/01/15 06:30:06;;;;;;;67.03;26.45;;;-1.10;99.90;;;;;;5047608;28;20746;-77
2022/01/15 06:32:36;;;;;;;54.22;27.52;;;-1.10;99.90;;;;;;5040791;28;20290;-77
2022/01/15 06:35:04;;;;;;;62.30;27.08;;;-1.00;99.90;;;;;;5049567;28;20208;-78
2022/01/15 06:37:32;;;;;;;53.10;24.75;;;-1.00;99.90;;;;;;5069455;28;20233;-78
2022/01/15 06:39:59;;;;;;;56.05;27.63;;;-1.00;99.90;;;;;;5058231;28;20257;-78
2022/01/15 06:42:26;;;;;;;50.47;25.33;;;-1.00;99.90;;;;;;5045392;28;20271;-78
2022/01/15 06:44:53;;;;;;;54.28;26.70;;;-1.10;99.90;;;;;;5042544;28;20203;-78
2022/01/15 06:47:20;;;;;;;55.67;26.00;;;-0.90;99.90;;;;;;5045960;28;20202;-77
2022/01/15 06:49:47;;;;;;;57.40;26.65;;;-1.00;99.90;;;;;;5063285;28;20226;-77
2022/01/15 06:52:14;;;;;;;61.55;28.23;;;-1.00;99.90;;;;;;5058639;28;20226;-79
2022/01/15 06:54:42;;;;;;;49.75;26.00;;;-0.90;99.90;;;;;;5043226;28;20238;-77
2022/01/15 06:57:09;;;;;;;57.47;26.30;;;-0.90;99.90;;;;;;5043130;28;20282;-77
2022/01/15 06:59:36;;;;;;;52.90;25.70;;;-0.80;99.90;;;;;;5044907;28;20286;-78
2022/01/15 07:02:05;;;;;;;52.75;27.63;;;-0.90;99.90;;;;;;5043118;28;20215;-78
2022/01/15 07:04:32;;;;;;;55.17;27.35;;;-0.90;99.90;;;;;;5065821;28;20214;-77
2022/01/15 07:06:59;;;;;;;57.15;26.92;;;-0.80;99.90;;;;;;5069080;28;20207;-78
2022/01/15 07:09:25;;;;;;;53.75;26.73;;;-0.80;99.90;;;;;;5047553;28;20258;-77
2022/01/15 07:11:53;;;;;;;45.70;23.73;;;-0.70;99.90;;;;;;5052649;28;20262;-79
2022/01/15 07:14:20;;;;;;;50.33;25.90;;;-0.70;99.90;;;;;;5049128;28;20294;-78
2022/01/15 07:16:47;;;;;;;50.33;24.75;;;-0.80;99.90;;;;;;5055606;28;20202;-78
2022/01/15 07:19:14;;;;;;;50.72;24.25;;;-0.80;99.90;;;;;;5067579;28;20250;-78
2022/01/15 07:21:41;;;;;;;52.22;25.35;;;-0.80;99.90;;;;;;5052954;28;20222;-79
2022/01/15 07:24:08;;;;;;;47.85;24.15;;;-0.80;99.90;;;;;;5071088;28;20238;-78
2022/01/15 07:26:35;;;;;;;53.03;24.48;;;-0.90;99.90;;;;;;5068390;28;20224;-78
2022/01/15 07:29:05;;;;;;;51.65;24.77;;;-0.80;99.90;;;;;;5061738;28;20214;-78
2022/01/15 07:31:32;;;;;;;46.85;25.55;;;-0.80;99.90;;;;;;5060914;28;20293;-77
2022/01/15 07:33:58;;;;;;;54.78;26.27;;;-0.80;99.90;;;;;;5047091;28;20297;-79
2022/01/15 07:36:25;;;;;;;41.08;21.58;;;-0.90;99.90;;;;;;5045059;28;20238;-79
2022/01/15 07:38:52;;;;;;;48.58;23.52;;;-0.90;99.90;;;;;;5060423;28;20219;-79
2022/01/15 07:41:19;;;;;;;47.05;24.00;;;-0.90;99.90;;;;;;5063546;28;20663;-80
2022/01/15 07:43:46;;;;;;;55.75;25.55;;;-0.90;99.90;;;;;;5051334;28;20297;-79
2022/01/15 07:46:14;;;;;;;46.60;22.90;;;-0.90;99.90;;;;;;5048481;28;20213;-77
2022/01/15 07:48:41;;;;;;;48.17;24.20;;;-0.80;99.90;;;;;;5057072;28;20311;-79
2022/01/15 07:51:08;;;;;;;53.40;26.25;;;-0.80;99.90;;;;;;5052155;28;20206;-78
2022/01/15 07:53:35;;;;;;;47.03;25.23;;;-0.80;99.90;;;;;;5060669;28;20202;-77
2022/01/15 07:56:02;;;;;;;53.40;26.98;;;-0.80;99.90;;;;;;5061464;28;20202;-77
2022/01/15 07:58:29;;;;;;;46.00;25.05;;;-0.70;99.90;;;;;;5061356;28;20228;-79
2022/01/15 08:00:56;;;;;;;54.03;27.15;;;-0.70;99.90;;;;;;5060251;28;20293;-79
2022/01/15 08:03:25;;;;;;;53.72;26.08;;;-0.80;99.90;;;;;;5061936;28;20221;-77
2022/01/15 08:05:51;;;;;;;48.38;28.17;;;-0.80;99.90;;;;;;5060741;28;20226;-78
2022/01/15 08:08:18;;;;;;;50.83;26.17;;;-0.70;99.90;;;;;;5062294;28;20694;-79
2022/01/15 08:10:45;;;;;;;43.33;22.58;;;-0.70;99.90;;;;;;5061634;28;20772;-78
2022/01/15 08:13:12;;;;;;;48.92;24.42;;;-0.70;99.90;;;;;;5064003;28;20232;-78
2022/01/15 08:15:39;;;;;;;47.15;23.60;;;-0.70;99.90;;;;;;5071971;28;20302;-78
2022/01/15 08:18:06;;;;;;;54.15;26.40;;;-0.60;99.90;;;;;;5066789;28;20291;-78
2022/01/15 08:20:35;;;;;;;61.95;26.95;;;-0.60;99.90;;;;;;5073020;28;20233;-78
2022/01/15 08:23:01;;;;;;;50.50;24.23;;;-0.50;99.90;;;;;;5067147;28;20219;-79
2022/01/15 08:25:28;;;;;;;50.08;24.08;;;-0.50;99.90;;;;;;5077896;28;20230;-77
2022/01/15 08:27:56;;;;;;;53.40;25.20;;;-0.60;99.90;;;;;;5078155;28;20263;-78
2022/01/15 08:30:24;;;;;;;44.50;23.67;;;-0.60;99.90;;;;;;5077519;28;20245;-77
2022/01/15 08:32:51;;;;;;;50.10;26.02;;;-0.60;99.90;;;;;;5064106;28;20233;-78
2022/01/15 08:35:18;;;;;;;49.78;24.30;;;-0.60;99.90;;;;;;5060818;28;20270;-78
2022/01/15 08:37:46;;;;;;;47.45;26.13;;;-0.60;99.90;;;;;;5061748;28;20207;-78
2022/01/15 08:40:17;;;;;;;46.70;26.63;;;-0.60;99.90;;;;;;5058277;28;20206;-78
2022/01/15 08:42:44;;;;;;;51.50;27.13;;;-0.60;99.90;;;;;;5064715;28;20226;-79
2022/01/15 08:45:12;;;;;;;52.15;27.48;;;-0.60;99.90;;;;;;5060911;28;20297;-78
2022/01/15 08:47:40;;;;;;;44.47;24.25;;;-0.60;99.90;;;;;;5059816;28;20207;-79
2022/01/15 08:50:09;;;;;;;46.20;24.98;;;-0.50;99.90;;;;;;5062574;28;20222;-78
2022/01/15 08:52:36;;;;;;;47.35;24.88;;;-0.50;99.90;;;;;;5064436;28;20206;-77
2022/01/15 08:55:06;;;;;;;48.95;25.92;;;-0.50;99.90;;;;;;5062525;28;20692;-79
2022/01/15 08:57:33;;;;;;;45.90;24.48;;;-0.50;99.90;;;;;;5066031;28;20283;-79
2022/01/15 09:00:00;;;;;;;51.25;25.63;;;-0.30;99.90;;;;;;5067257;28;20246;-77
2022/01/15 09:02:27;;;;;;;41.88;21.38;;;-0.20;99.90;;;;;;5063324;28;20202;-78
2022/01/15 09:04:54;;;;;;;41.60;24.33;;;-0.20;99.90;;;;;;5062181;28;20278;-79
2022/01/15 09:07:21;;;;;;;42.60;25.88;;;-0.20;99.90;;;;;;5062656;28;20214;-78
2022/01/15 09:09:48;;;;;;;55.40;26.15;;;-0.30;99.90;;;;;;5066233;28;20294;-76
2022/01/15 09:12:17;;;;;;;48.63;25.30;;;-0.10;99.90;;;;;;5070855;28;20210;-77
2022/01/15 09:14:45;;;;;;;47.50;24.17;;;-0.20;99.90;;;;;;5072552;28;20211;-77
2022/01/15 09:17:12;;;;;;;48.70;24.27;;;-0.10;99.90;;;;;;5070256;28;20214;-78
2022/01/15 09:19:39;;;;;;;47.80;22.92;;;0.00;99.90;;;;;;5068462;28;20259;-77
2022/01/15 09:22:09;;;;;;;43.58;21.95;;;-0.10;99.90;;;;;;5071329;28;20207;-77
2022/01/15 09:24:36;;;;;;;49.22;24.40;;;-0.10;99.90;;;;;;5069069;28;20275;-77
2022/01/15 09:30:12;;;;;;;50.85;24.90;;;-0.10;99.90;;;;;;5066055;28;20211;-76
2022/01/15 09:32:36;;;;;;;49.35;23.08;;;0.00;99.90;;;;;;5056266;28;20264;-77
2022/01/15 09:35:04;;;;;;;41.33;22.27;;;0.10;99.90;;;;;;5057734;28;20245;-77
2022/01/15 09:37:31;;;;;;;44.28;24.00;;;0.20;99.90;;;;;;5058198;28;20222;-77
2022/01/15 09:39:58;;;;;;;34.33;19.17;;;0.20;99.90;;;;;;5056187;28;20305;-77
2022/01/15 09:42:26;;;;;;;46.78;21.95;;;0.20;99.90;;;;;;5058019;28;20301;-77
2022/01/15 09:44:55;;;;;;;45.05;21.35;;;0.30;99.90;;;;;;5057669;28;20214;-77
2022/01/15 09:47:23;;;;;;;44.25;22.98;;;0.40;99.90;;;;;;5060788;28;20695;-78
2022/01/15 09:49:50;;;;;;;45.20;21.73;;;0.30;99.90;;;;;;5060862;28;20233;-78
2022/01/15 09:52:18;;;;;;;50.22;24.42;;;0.30;99.90;;;;;;5060653;28;20608;-76
2022/01/15 09:54:45;;;;;;;49.08;22.15;;;0.20;99.90;;;;;;5057136;28;20217;-77
2022/01/15 09:57:12;;;;;;;48.10;22.50;;;0.30;99.90;;;;;;5067069;28;20214;-77
2022/01/15 09:59:39;;;;;;;42.97;21.65;;;0.30;99.90;;;;;;5058541;28;20761;-76
2022/01/15 10:02:08;;;;;;;46.83;23.95;;;0.40;99.90;;;;;;5066597;28;20216;-78
2022/01/15 10:04:35;;;;;;;43.92;22.27;;;0.50;99.90;;;;;;5060157;28;20582;-78
2022/01/15 10:07:15;;;;;;;42.75;21.77;;;0.60;99.90;;;;;;5065926;28;20624;-76
2022/01/15 10:09:43;;;;;;;38.47;22.70;;;0.60;99.90;;;;;;5055976;28;20261;-76
2022/01/15 10:12:12;;;;;;;46.13;22.92;;;0.50;99.90;;;;;;5056253;28;20217;-78
2022/01/15 10:14:41;;;;;;;43.05;21.40;;;0.50;99.90;;;;;;5054794;28;20313;-76
2022/01/15 10:17:23;;;;;;;45.78;23.00;;;0.70;99.90;;;;;;5056747;28;20679;-77
2022/01/15 10:19:51;;;;;;;49.13;22.48;;;0.80;99.90;;;;;;5058932;28;20222;-77
2022/01/15 10:22:20;;;;;;;41.10;21.15;;;0.70;99.90;;;;;;5057698;28;20550;-77
2022/01/15 10:24:54;;;;;;;42.10;20.23;;;0.70;99.90;;;;;;5066903;28;20210;-75
2022/01/15 10:27:23;;;;;;;46.05;23.00;;;0.80;99.90;;;;;;5065277;28;20187;-77
2022/01/15 10:29:56;;;;;;;42.15;22.52;;;0.80;99.90;;;;;;5057530;28;20237;-76
2022/01/15 10:32:26;;;;;;;43.83;21.83;;;0.80;99.90;;;;;;5058489;28;20220;-77
2022/01/15 10:34:54;;;;;;;48.90;22.73;;;0.90;99.90;;;;;;5072071;28;20199;-77
2022/01/15 10:37:22;;;;;;;48.65;20.80;;;0.90;99.90;;;;;;5061568;28;20233;-75
2022/01/15 10:39:58;;;;;;;47.70;23.38;;;0.90;99.90;;;;;;5070623;28;20233;-76
2022/01/15 10:42:25;;;;;;;47.70;23.92;;;0.90;99.90;;;;;;5065110;28;20611;-77
2022/01/15 10:44:53;;;;;;;44.15;22.17;;;0.80;99.90;;;;;;5058414;28;20206;-76
2022/01/15 10:47:21;;;;;;;47.58;23.70;;;0.90;99.90;;;;;;5060192;28;20297;-76
2022/01/15 10:49:50;;;;;;;46.67;22.42;;;0.90;99.90;;;;;;5057505;28;20262;-77
2022/01/15 10:52:19;;;;;;;45.05;21.92;;;0.90;99.90;;;;;;5064792;28;20207;-77
2022/01/15 10:54:57;;;;;;;51.08;23.17;;;1.00;99.90;;;;;;5064522;28;20217;-77
2022/01/15 10:57:26;;;;;;;42.38;22.67;;;1.00;99.90;;;;;;5060320;28;20299;-76
2022/01/15 10:59:57;;;;;;;42.83;21.65;;;0.90;99.90;;;;;;5058353;28;20773;-79
2022/01/15 11:02:25;;;;;;;50.47;24.33;;;0.80;99.90;;;;;;5059281;28;20722;-76
2022/01/15 11:04:54;;;;;;;43.25;23.25;;;0.90;99.90;;;;;;5060442;28;20214;-77
2022/01/15 11:07:21;;;;;;;48.60;22.65;;;1.00;99.90;;;;;;5057582;28;20217;-77
2022/01/15 11:09:53;;;;;;;41.42;21.60;;;1.10;99.90;;;;;;5057179;28;20744;-77
2022/01/15 11:12:21;;;;;;;46.50;23.25;;;1.10;99.90;;;;;;5057853;28;20294;-77
2022/01/15 11:14:48;;;;;;;51.63;24.90;;;1.10;99.90;;;;;;5059770;28;20241;-76
2022/01/15 11:17:15;;;;;;;49.20;24.25;;;1.10;99.90;;;;;;5060415;28;20264;-77
2022/01/15 11:19:45;;;;;;;49.67;23.10;;;1.10;99.90;;;;;;5056809;28;20321;-76
2022/01/15 11:22:21;;;;;;;50.15;25.40;;;1.00;99.90;;;;;;5055873;28;20280;-76
2022/01/15 11:24:49;;;;;;;45.25;23.88;;;1.10;99.90;;;;;;5056658;28;20303;-76
2022/01/15 11:27:17;;;;;;;47.75;23.23;;;1.00;99.90;;;;;;5055491;28;20662;-76
2022/01/15 11:29:46;;;;;;;50.55;25.00;;;1.10;99.90;;;;;;5056325;28;20229;-74
2022/01/15 11:32:13;;;;;;;48.53;25.25;;;1.10;99.90;;;;;;5055532;28;20256;-76
2022/01/15 11:34:41;;;;;;;46.70;26.02;;;1.20;99.90;;;;;;5055578;28;20261;-76
2022/01/15 11:37:17;;;;;;;43.42;22.25;;;1.10;99.90;;;;;;5057383;28;20598;-76
2022/01/15 11:39:45;;;;;;;52.00;25.10;;;1.20;99.90;;;;;;5057596;28;20388;-76
2022/01/15 11:42:26;;;;;;;43.22;23.60;;;1.20;99.90;;;;;;5057980;28;20241;-76
2022/01/15 11:44:53;;;;;;;54.72;26.35;;;1.20;99.90;;;;;;5056795;28;20297;-76
2022/01/15 11:47:23;;;;;;;48.75;25.55;;;1.30;99.90;;;;;;5057900;28;20274;-76
2022/01/15 11:49:51;;;;;;;54.10;25.23;;;1.30;99.90;;;;;;5057302;28;20317;-76
2022/01/15 11:52:35;;;;;;;51.15;26.05;;;1.30;99.90;;;;;;5057624;28;20230;-76
2022/01/15 11:55:20;;;;;;;52.05;24.30;;;1.30;99.90;;;;;;5058162;28;20217;-76
2022/01/15 11:57:53;;;;;;;42.85;23.08;;;1.40;99.90;;;;;;5058635;28;20195;-77
2022/01/15 12:00:26;;;;;;;48.38;27.67;;;1.60;99.90;;;;;;5059502;28;20199;-75
2022/01/15 12:03:14;;;;;;;45.33;24.92;;;1.60;99.90;;;;;;5061779;28;20242;-77
2022/01/15 12:05:46;;;;;;;46.72;24.35;;;1.70;99.10;;;;;;5053927;28;20206;-76
2022/01/15 12:08:34;;;;;;;45.03;23.80;;;1.70;97.70;;;;;;5056746;28;20234;-76
2022/01/15 12:11:04;;;;;;;40.47;22.50;;;1.70;97.50;;;;;;5057145;28;20211;-77
2022/01/15 12:13:42;;;;;;;44.85;23.10;;;1.70;97.80;;;;;;5056685;28;20221;-75
2022/01/15 12:16:36;;;;;;;47.63;22.90;;;1.80;98.00;;;;;;5059147;28;20197;-76
2022/01/15 12:19:04;;;;;;;47.63;24.10;;;1.70;97.10;;;;;;5064712;28;20234;-74
2022/01/15 12:21:49;;;;;;;45.60;23.65;;;1.70;97.40;;;;;;5068136;28;20206;-76
2022/01/15 12:24:37;;;;;;;46.28;23.45;;;1.70;97.10;;;;;;5062960;28;20210;-76
2022/01/15 12:27:06;;;;;;;41.70;23.48;;;1.70;97.50;;;;;;5066610;28;20230;-75
2022/01/15 12:29:33;;;;;;;40.75;23.20;;;1.70;96.60;;;;;;5066678;28;20234;-76
2022/01/15 12:32:00;;;;;;;42.55;22.40;;;1.90;97.00;;;;;;5065272;28;20233;-77
2022/01/15 12:34:28;;;;;;;49.95;26.00;;;1.90;95.80;;;;;;5067688;28;20249;-74
2022/01/15 12:36:56;;;;;;;52.13;24.20;;;1.80;95.70;;;;;;5064268;28;20268;-75
2022/01/15 12:39:33;;;;;;;45.40;24.35;;;1.80;96.20;;;;;;5061837;28;20242;-74
2022/01/15 12:42:01;;;;;;;50.33;24.48;;;2.00;95.90;;;;;;5062844;28;20621;-75
2022/01/15 12:44:28;;;;;;;44.70;22.80;;;2.00;95.20;;;;;;5063250;28;20237;-75
2022/01/15 12:46:56;;;;;;;43.35;23.05;;;2.00;94.00;;;;;;5062215;28;20297;-76
2022/01/15 12:49:23;;;;;;;48.15;24.60;;;1.90;94.00;;;;;;5062247;28;20238;-76